Latest Weather Observations for Biloela

IDQ60801

Issued at 9:02 am EST Wednesday 18 January 2017 (issued every 30 minutes, with the page automatically refreshed every 10 minutes)

About weather observations | Map of weather stations | Latest weather observations for QLD | Other Formats
Station Details ID: 039089 Name: THANGOOL AIRPORT Lat: -24.49 Lon: 150.57 Height: 193.1 m
Data from the previous 72 hours. | See also: Recent months at Biloela
Date/Time
EST
Temp
°C
App
Temp
°C
Dew
Point
°C
Rel
Hum
%
Delta-T
°C
Wind Press
QNH
hPa
Press
MSL
hPa
Rain since
9am
mm
Dir  Spd
km/h
Gust
km/h
Spd
kts
Gust
kts
18/08:30am 26.8 28.1 19.2 63 4.9 N 11 17 6 9 1016.0 - 0.0
18/08:00am 25.5 26.8 19.2 68 4.1 NNW 11 17 6 9 1016.2 - 0.0
18/07:30am 24.6 27.4 18.8 70 3.7 W 2 9 1 5 1016.1 - 0.0
18/07:00am 23.3 26.3 18.4 74 3.1 CALM 0 0 0 0 1016.0 - 0.0
18/06:30am 21.4 24.4 18.4 83 1.9 CALM 0 0 0 0 1015.7 - 0.0
18/06:00am 19.4 22.4 18.4 94 0.6 CALM 0 0 0 0 1015.4 1014.2 0.0
18/05:30am 18.5 21.0 17.2 92 0.8 CALM 0 0 0 0 1015.1 - 0.0
18/05:00am 18.9 21.2 17.6 92 0.8 SE 2 7 1 4 1014.7 - 0.0
18/04:30am 18.9 21.3 17.0 89 1.2 CALM 0 6 0 3 1014.3 - 0.0
18/04:00am 19.2 21.6 17.0 87 1.3 CALM 0 0 0 0 1014.1 - 0.0
18/03:30am 19.8 22.3 17.2 85 1.6 CALM 0 0 0 0 1014.1 - 0.0
18/03:00am 20.5 23.2 17.7 84 1.7 CALM 0 0 0 0 1014.1 1012.9 0.0
18/02:30am 21.2 23.9 17.8 81 2.1 CALM 0 0 0 0 1014.2 - 0.0
18/02:00am 21.9 24.8 18.1 79 2.4 CALM 0 0 0 0 1014.2 - 0.0
18/01:30am 22.4 25.0 17.5 74 3.1 CALM 0 6 0 3 1014.4 - 0.0
18/01:00am 23.4 25.1 18.1 72 3.3 N 6 7 3 4 1014.8 - 0.0
18/12:30am 23.5 24.6 17.9 71 3.5 N 9 11 5 6 1015.0 - 0.0
18/12:00am 23.9 25.5 18.3 71 3.5 N 7 9 4 5 1015.3 1014.1 0.0
 
Date/Time
EST
Temp
°C
App
Temp
°C
Dew
Point
°C
Rel
Hum
%
Delta-T
°C
Wind Press
QNH
hPa
Press
MSL
hPa
Rain since
9am
mm
Dir  Spd
km/h
Gust
km/h
Spd
kts
Gust
kts
17/11:30pm 24.2 25.6 18.6 71 3.6 N 9 13 5 7 1015.5 - 0.0
17/11:00pm 24.9 26.4 19.0 69 3.8 NNE 9 17 5 9 1015.8 - 0.0
17/10:30pm 25.3 26.3 19.4 70 3.8 NNE 13 17 7 9 1015.9 - 0.0
17/10:00pm 25.7 27.2 19.8 70 3.8 NNE 11 15 6 8 1016.1 - 0.0
17/09:30pm 26.1 27.6 19.7 68 4.2 NNE 11 17 6 9 1015.9 - 0.0
17/09:00pm 26.6 28.4 19.5 65 4.6 NNE 9 15 5 8 1015.7 1014.5 0.0
17/08:30pm 27.2 27.5 19.5 62 5.0 NNE 17 26 9 14 1015.3 - 0.0
17/08:00pm 27.8 28.0 19.3 60 5.5 NNE 17 26 9 14 1014.8 - 0.0
17/07:30pm 28.6 27.4 19.2 56 6.1 NE 24 33 13 18 1014.3 - 0.0
17/07:00pm 29.6 28.3 19.0 53 6.9 NE 24 33 13 18 1013.9 - 0.0
17/06:30pm 30.6 30.2 19.3 51 7.4 NNE 20 28 11 15 1013.6 - 0.0
17/06:00pm 31.4 31.2 19.4 49 7.9 NNE 19 28 10 15 1013.3 1012.1 0.0
17/05:30pm 32.3 32.0 19.5 46 8.5 NNE 20 30 11 16 1012.9 - 0.0
17/05:00pm 34.4 33.4 17.6 37 10.9 NNW 19 33 10 18 1012.3 - 0.0
17/04:30pm 35.4 35.2 15.7 31 12.5 WNW 11 17 6 9 1012.1 - 0.0
17/04:00pm 35.2 35.9 17.0 34 11.7 W 9 17 5 9 1012.3 - 0.0
17/03:30pm 34.1 34.4 16.0 34 11.5 NNE 9 11 5 6 1012.8 - 0.0
17/03:00pm 35.7 36.7 16.9 32 12.1 ESE 7 13 4 7 1013.0 1011.8 0.0
17/02:30pm 34.9 35.1 15.7 31 12.2 NNE 9 17 5 9 1013.3 - 0.0
17/02:00pm 34.4 35.0 16.7 34 11.3 NE 9 15 5 8 1013.6 - 0.0
17/01:30pm 33.1 32.6 16.0 35 10.8 NNW 13 19 7 10 1014.1 - 0.0
17/01:00pm 33.1 33.2 15.6 35 11.0 SE 9 15 5 8 1014.4 - 0.0
17/12:30pm 34.1 35.0 16.5 35 11.2 ESE 7 13 4 7 1014.9 - 0.0
17/12:00pm 33.7 34.4 17.0 37 10.7 ENE 9 19 5 10 1015.4 1014.2 0.0
17/11:30am 33.1 34.5 17.3 39 10.2 SE 6 9 3 5 1015.8 - 0.0
17/11:00am 31.1 31.7 16.7 42 9.1 ENE 9 15 5 8 1016.3 - 0.0
17/10:30am 32.0 32.0 17.1 41 9.5 E 13 28 7 15 1016.5 - 0.0
17/10:00am 30.0 31.5 18.1 49 7.7 SSE 7 11 4 6 1016.6 - 0.0
17/09:30am 30.2 30.5 18.0 48 7.9 ENE 13 20 7 11 1016.7 - 0.0
17/09:00am 29.8 31.3 18.9 52 7.1 ENE 9 20 5 11 1016.8 1015.7 0.2
17/08:30am 26.9 28.6 19.3 63 4.9 E 9 13 5 7 1017.0 - 0.2
17/08:00am 26.8 28.8 19.9 66 4.5 ESE 9 13 5 7 1017.1 - 0.2
17/07:30am 25.0 27.9 20.7 77 2.8 SSE 6 11 3 6 1017.1 - 0.2
17/07:00am 23.0 25.7 20.3 85 1.8 S 6 7 3 4 1016.9 - 0.2
17/06:30am 19.4 22.4 18.4 94 0.6 CALM 0 0 0 0 1016.7 - 0.2
17/06:00am 18.9 21.8 18.1 95 0.5 CALM 0 0 0 0 1016.3 1015.1 0.2
17/05:30am 18.4 19.7 17.2 93 0.7 E 6 6 3 3 1016.0 - 0.2
17/05:00am 18.5 19.8 17.2 92 0.8 ESE 6 7 3 4 1015.5 - 0.2
17/04:30am 18.7 19.9 17.4 92 0.8 E 7 9 4 5 1015.2 - 0.2
17/04:00am 18.8 21.2 17.1 90 1.0 CALM 0 7 0 4 1015.0 - 0.2
17/03:30am 20.2 22.1 19.0 93 0.8 SE 7 9 4 5 1014.8 - 0.2
17/03:00am 19.4 22.0 17.5 89 1.2 CALM 0 0 0 0 1015.1 1013.9 0.2
17/02:30am 19.5 21.0 17.6 89 1.2 E 6 9 3 5 1015.1 - 0.2
17/02:00am 19.9 22.7 17.9 88 1.2 CALM 0 0 0 0 1015.1 - 0.2
17/01:30am 19.8 22.3 17.2 85 1.6 CALM 0 0 0 0 1015.3 - 0.2
17/01:00am 20.2 22.8 17.6 85 1.6 CALM 0 0 0 0 1015.1 - 0.2
17/12:30am 20.8 23.6 18.0 84 1.7 CALM 0 0 0 0 1015.2 - 0.2
17/12:00am 21.2 24.0 18.0 82 2.0 CALM 0 0 0 0 1015.5 1014.3 0.2
 
Date/Time
EST
Temp
°C
App
Temp
°C
Dew
Point
°C
Rel
Hum
%
Delta-T
°C
Wind Press
QNH
hPa
Press
MSL
hPa
Rain since
9am
mm
Dir  Spd
km/h
Gust
km/h
Spd
kts
Gust
kts
16/11:30pm 21.6 24.6 18.4 82 2.0 CALM 0 0 0 0 1015.7 - 0.2
16/11:00pm 21.6 24.2 17.4 77 2.6 CALM 0 0 0 0 1015.8 - 0.2
16/10:30pm 22.6 25.4 17.9 75 2.9 CALM 0 0 0 0 1015.7 - 0.2
16/10:00pm 24.1 25.9 18.7 72 3.4 E 7 11 4 6 1015.5 - 0.2
16/09:30pm 24.2 25.1 18.4 70 3.7 E 11 15 6 8 1015.3 - 0.2
16/09:00pm 25.4 26.4 18.6 66 4.4 ENE 11 17 6 9 1015.1 1013.9 0.2
16/08:30pm 26.1 26.7 18.5 63 4.9 NE 13 20 7 11 1014.8 - 0.2
16/08:00pm 26.9 26.9 18.2 59 5.6 NE 15 20 8 11 1014.4 - 0.2
16/07:30pm 27.8 27.7 18.8 58 5.8 NE 17 22 9 12 1014.1 - 0.2
16/07:00pm 28.6 27.8 18.4 54 6.6 NE 20 32 11 17 1013.6 - 0.2
16/06:30pm 30.0 28.6 17.1 46 8.2 NE 20 30 11 16 1013.0 - 0.2
16/06:00pm 30.8 29.1 17.1 43 8.7 NE 22 30 12 16 1012.5 1011.3 0.2
16/05:30pm 31.7 30.5 17.6 43 9.1 NE 20 28 11 15 1011.9 - 0.2
16/05:00pm 32.6 31.0 16.4 37 10.3 NE 20 28 11 15 1011.6 - 0.2
16/04:30pm 32.9 33.0 18.3 42 9.5 NNE 15 28 8 15 1011.3 - 0.2
16/04:00pm 32.9 33.1 19.4 45 8.9 N 17 28 9 15 1011.3 - 0.2
16/03:30pm 33.7 35.0 19.4 43 9.5 N 11 19 6 10 1011.2 - 0.2
16/03:00pm 32.0 33.1 19.6 47 8.2 NE 13 20 7 11 1011.4 1010.2 0.2
16/02:30pm 31.5 33.3 20.4 51 7.4 N 11 24 6 13 1011.7 - 0.2
16/02:00pm 31.3 32.1 20.6 53 7.2 N 17 26 9 14 1012.0 - 0.2
16/01:30pm 32.0 33.3 20.9 52 7.5 NNE 15 22 8 12 1012.2 - 0.2
16/01:00pm 30.7 32.0 20.9 56 6.6 N 15 20 8 11 1012.6 - 0.2
16/12:30pm 30.1 31.2 21.2 59 6.0 NE 17 26 9 14 1012.8 - 0.2
16/12:00pm 30.2 33.0 21.6 60 5.8 NNE 9 20 5 11 1013.1 1011.9 0.2
16/11:30am 28.3 29.9 20.8 63 5.0 NNE 13 20 7 11 1013.4 - 0.2
16/11:00am 26.2 27.5 21.6 76 3.1 NNE 17 20 9 11 1013.8 - 0.2
16/10:30am 26.5 25.3 21.5 74 3.3 ENE 30 35 16 19 1013.9 - 0.0
16/10:13am 27.5 27.0 22.2 73 3.6 ENE 28 37 15 20 1013.9 - 0.0
16/10:00am 26.8 29.8 23.3 81 2.4 E 13 19 7 10 1013.8 - 0.0
16/09:46am 26.1 29.9 24.0 88 1.5 ESE 11 15 6 8 1013.9 - 0.0
16/09:35am 25.4 27.7 23.5 89 1.3 ENE 17 22 9 12 1014.0 - 0.0
16/09:30am 25.3 27.0 23.0 87 1.6 ENE 19 22 10 12 1014.1 - 0.0
16/09:00am 24.9 28.0 22.8 88 1.4 SE 11 17 6 9 1013.9 1012.7 5.4
16/08:30am 26.2 30.0 22.7 81 2.4 SE 7 11 4 6 1013.7 - 4.4
16/08:00am 26.0 29.4 22.7 82 2.2 SE 9 11 5 6 1013.6 - 4.4
16/07:30am 25.8 29.2 22.7 83 2.1 ESE 9 17 5 9 1013.2 - 4.4
16/07:00am 24.6 27.9 22.5 88 1.4 ESE 9 11 5 6 1012.9 - 4.4
16/06:30am 23.8 28.2 22.1 90 1.1 SSE 2 6 1 3 1012.6 - 4.4
16/06:00am 23.4 26.9 21.8 91 1.1 SE 6 7 3 4 1012.2 1011.1 4.2
16/05:30am 23.0 26.2 21.6 92 0.9 SSE 7 7 4 4 1011.8 - 4.2
16/05:00am 22.9 27.2 21.2 90 1.1 CALM 0 0 0 0 1011.3 - 4.2
16/04:30am 23.3 26.4 21.4 89 1.3 ESE 7 9 4 5 1011.0 - 4.2
16/04:00am 23.0 27.3 21.1 89 1.3 CALM 0 0 0 0 1010.5 - 4.2
16/03:30am 23.3 26.5 21.2 88 1.4 SE 6 7 3 4 1010.2 - 4.2
16/03:00am 23.7 27.0 21.4 87 1.5 SE 6 9 3 5 1010.3 1009.1 4.2
16/02:30am 23.7 28.2 21.6 88 1.4 CALM 0 0 0 0 1010.6 - 4.2
16/02:00am 23.7 28.2 21.6 88 1.4 CALM 0 0 0 0 1010.8 - 4.2
16/01:30am 23.5 27.4 21.9 91 1.1 SSE 4 9 2 5 1010.9 - 4.2
16/01:00am 23.0 27.4 21.4 91 1.1 CALM 0 0 0 0 1010.9 - 4.2
16/12:30am 23.3 27.8 21.6 90 1.1 CALM 0 0 0 0 1010.9 - 4.2
16/12:00am 23.4 27.1 21.5 89 1.3 SSE 4 7 2 4 1011.2 1010.0 4.2
 
Date/Time
EST
Temp
°C
App
Temp
°C
Dew
Point
°C
Rel
Hum
%
Delta-T
°C
Wind Press
QNH
hPa
Press
MSL
hPa
Rain since
9am
mm
Dir  Spd
km/h
Gust
km/h
Spd
kts
Gust
kts
15/11:30pm 23.4 26.6 21.7 90 1.1 E 7 9 4 5 1011.6 - 4.2
15/11:00pm 23.2 27.3 21.6 91 1.1 ESE 2 9 1 5 1011.5 - 4.2
15/10:30pm 23.5 27.5 21.4 88 1.4 SE 2 7 1 4 1011.9 - 4.2
15/10:00pm 24.1 27.7 20.6 81 2.3 S 2 6 1 3 1011.6 - 4.0
15/09:30pm 24.2 27.1 20.7 81 2.3 SE 6 9 3 5 1011.6 - 4.0
15/09:00pm 24.4 26.8 20.9 81 2.3 ESE 9 19 5 10 1011.6 1010.4 4.0
15/08:30pm 24.8 26.2 21.9 84 1.9 E 17 24 9 13 1011.6 - 3.8
15/08:00pm 24.7 27.2 22.4 87 1.6 SSE 13 20 7 11 1011.0 - 3.8
15/07:30pm 24.5 27.0 21.8 85 1.8 SSE 11 20 6 11 1010.8 - 3.8
15/07:00pm 24.4 26.6 21.9 86 1.7 ESE 13 22 7 12 1010.0 - 3.6
15/06:30pm 24.6 26.4 21.9 85 1.8 E 15 19 8 10 1009.5 - 3.6
15/06:00pm 24.7 27.2 21.8 84 1.9 ESE 11 15 6 8 1009.5 1008.3 3.6
15/05:30pm 25.6 28.2 21.9 80 2.5 ESE 11 17 6 9 1008.7 - 3.6
15/05:00pm 26.2 27.6 21.8 77 3.0 SSE 17 28 9 15 1008.2 - 3.6
15/04:30pm 28.1 32.5 24.5 81 2.5 SSE 9 11 5 6 1007.5 - 3.6
15/04:00pm 27.8 31.4 24.4 82 2.4 S 13 15 7 8 1006.7 - 3.6
15/03:30pm 27.6 32.0 24.4 83 2.2 ESE 9 13 5 7 1006.7 - 3.6
15/03:00pm 27.2 31.5 24.3 84 2.0 SE 9 13 5 7 1007.2 1006.0 3.6
15/02:30pm 27.5 30.2 23.5 79 2.8 E 15 20 8 11 1006.2 - 3.6
15/02:06pm 26.9 31.0 24.0 84 2.0 NE 9 13 5 7 1006.5 - 3.6
15/02:00pm 26.8 31.0 24.1 85 1.9 ESE 9 15 5 8 1006.7 - 3.6
15/01:46pm 26.8 28.3 22.0 75 3.2 SE 17 20 9 11 1007.2 - 1.6
15/01:42pm 26.7 26.7 21.0 71 3.8 ESE 22 30 12 16 1007.4 - 0.6
15/01:30pm 31.9 35.5 22.0 55 6.8 N 6 15 3 8 1007.3 - 0.0
15/01:00pm 33.9 35.4 22.0 49 8.2 N 17 24 9 13 1007.7 - 0.0
15/12:30pm 33.9 35.6 22.3 50 8.0 NNW 17 22 9 12 1007.8 - 0.0
15/12:00pm 33.4 35.2 22.5 52 7.5 NW 17 24 9 13 1008.1 1006.9 0.0
15/11:30am 33.4 35.9 22.5 52 7.5 WNW 13 20 7 11 1008.2 - 0.0
15/11:00am 33.7 36.2 21.8 49 8.1 W 11 19 6 10 1008.4 - 0.0
15/10:30am 33.7 36.4 22.1 50 8.0 WNW 11 26 6 14 1008.6 - 0.0
15/10:00am 32.9 35.0 22.4 54 7.2 N 15 22 8 12 1008.6 - 0.0
15/09:30am 32.6 35.0 23.0 57 6.7 NNW 15 24 8 13 1008.6 - 0.0

Other Formats:

Comma delimited format used in spreadsheet applications
http://www.bom.gov.au/fwo/IDQ60801/IDQ60801.94376.axf

JavaScript Object Notation format (JSON) in row-major order
http://www.bom.gov.au/fwo/IDQ60801/IDQ60801.94376.json